sensor_id;sensor_type;location;lat;lon;timestamp;temperature;humidity
50606;DHT22;36557;53.572;10.170;2022-12-18T00:01:18;-6.10;99.90
50606;DHT22;36557;53.572;10.170;2022-12-18T00:03:44;-6.10;99.90
50606;DHT22;36557;53.572;10.170;2022-12-18T00:06:10;-6.10;99.90
50606;DHT22;36557;53.572;10.170;2022-12-18T00:08:37;-6.00;99.90
50606;DHT22;36557;53.572;10.170;2022-12-18T00:11:04;-6.10;99.90
50606;DHT22;36557;53.572;10.170;2022-12-18T00:13:30;-6.10;99.90
50606;DHT22;36557;53.572;10.170;2022-12-18T00:16:04;-6.10;99.90
50606;DHT22;36557;53.572;10.170;2022-12-18T00:18:31;-6.20;99.90
50606;DHT22;36557;53.572;10.170;2022-12-18T00:21:05;-6.20;99.90
50606;DHT22;36557;53.572;10.170;2022-12-18T00:23:32;-6.20;99.90
50606;DHT22;36557;53.572;10.170;2022-12-18T00:26:00;-6.20;99.90
50606;DHT22;36557;53.572;10.170;2022-12-18T00:28:25;-6.20;99.90
50606;DHT22;36557;53.572;10.170;2022-12-18T00:31:00;-6.30;99.90
50606;DHT22;36557;53.572;10.170;2022-12-18T00:33:25;-6.40;99.90
50606;DHT22;36557;53.572;10.170;2022-12-18T00:35:51;-6.40;99.90
50606;DHT22;36557;53.572;10.170;2022-12-18T00:38:17;-6.40;99.90
50606;DHT22;36557;53.572;10.170;2022-12-18T00:40:42;-6.40;99.90
50606;DHT22;36557;53.572;10.170;2022-12-18T00:43:09;-6.50;99.90
50606;DHT22;36557;53.572;10.170;2022-12-18T00:45:34;-6.50;99.90
50606;DHT22;36557;53.572;10.170;2022-12-18T00:48:00;-6.50;99.90
50606;DHT22;36557;53.572;10.170;2022-12-18T00:50:26;-6.50;99.90
50606;DHT22;36557;53.572;10.170;2022-12-18T00:52:52;-6.40;99.90
50606;DHT22;36557;53.572;10.170;2022-12-18T00:55:18;-6.50;99.90
50606;DHT22;36557;53.572;10.170;2022-12-18T00:57:44;-6.50;99.90
50606;DHT22;36557;53.572;10.170;2022-12-18T01:00:13;-6.50;99.90
50606;DHT22;36557;53.572;10.170;2022-12-18T01:02:39;-6.50;99.90
50606;DHT22;36557;53.572;10.170;2022-12-18T01:05:05;-6.40;99.90
50606;DHT22;36557;53.572;10.170;2022-12-18T01:07:31;-6.40;99.90
50606;DHT22;36557;53.572;10.170;2022-12-18T01:09:56;-6.40;99.90
50606;DHT22;36557;53.572;10.170;2022-12-18T01:12:22;-6.40;99.90
50606;DHT22;36557;53.572;10.170;2022-12-18T01:14:48;-6.30;99.90
50606;DHT22;36557;53.572;10.170;2022-12-18T01:17:13;-6.40;99.90
50606;DHT22;36557;53.572;10.170;2022-12-18T01:19:40;-6.40;99.90
50606;DHT22;36557;53.572;10.170;2022-12-18T01:22:05;-6.40;99.90
50606;DHT22;36557;53.572;10.170;2022-12-18T01:24:31;-6.40;99.90
50606;DHT22;36557;53.572;10.170;2022-12-18T01:26:57;-6.30;99.90
50606;DHT22;36557;53.572;10.170;2022-12-18T01:29:23;-6.40;99.90
50606;DHT22;36557;53.572;10.170;2022-12-18T01:31:49;-6.40;99.90
50606;DHT22;36557;53.572;10.170;2022-12-18T01:34:14;-6.40;99.90
50606;DHT22;36557;53.572;10.170;2022-12-18T01:36:40;-6.30;99.90
50606;DHT22;36557;53.572;10.170;2022-12-18T01:39:10;-6.40;99.90
50606;DHT22;36557;53.572;10.170;2022-12-18T01:41:36;-6.40;99.90
50606;DHT22;36557;53.572;10.170;2022-12-18T01:47:25;-6.40;99.90
50606;DHT22;36557;53.572;10.170;2022-12-18T01:49:52;-6.40;99.90
50606;DHT22;36557;53.572;10.170;2022-12-18T01:52:19;-6.50;99.90
50606;DHT22;36557;53.572;10.170;2022-12-18T01:54:47;-6.50;99.90
50606;DHT22;36557;53.572;10.170;2022-12-18T01:57:13;-6.50;99.90
50606;DHT22;36557;53.572;10.170;2022-12-18T01:59:40;-6.60;99.90
50606;DHT22;36557;53.572;10.170;2022-12-18T02:02:07;-6.60;99.90
50606;DHT22;36557;53.572;10.170;2022-12-18T02:04:33;-6.60;99.90
50606;DHT22;36557;53.572;10.170;2022-12-18T02:10:35;-6.60;99.90
50606;DHT22;36557;53.572;10.170;2022-12-18T02:13:46;-6.70;99.90
50606;DHT22;36557;53.572;10.170;2022-12-18T02:19:27;-6.70;99.90
50606;DHT22;36557;53.572;10.170;2022-12-18T02:27:40;-6.70;99.90
50606;DHT22;36557;53.572;10.170;2022-12-18T02:30:08;-6.70;99.90
50606;DHT22;36557;53.572;10.170;2022-12-18T02:32:43;-6.70;99.90
50606;DHT22;36557;53.572;10.170;2022-12-18T02:35:16;-6.70;99.90
50606;DHT22;36557;53.572;10.170;2022-12-18T02:37:44;-6.70;99.90
50606;DHT22;36557;53.572;10.170;2022-12-18T02:40:12;-6.70;99.90
50606;DHT22;36557;53.572;10.170;2022-12-18T02:42:39;-6.70;99.90
50606;DHT22;36557;53.572;10.170;2022-12-18T02:45:05;-6.80;99.90
50606;DHT22;36557;53.572;10.170;2022-12-18T02:47:34;-6.80;99.90
50606;DHT22;36557;53.572;10.170;2022-12-18T02:50:17;-6.80;99.90
50606;DHT22;36557;53.572;10.170;2022-12-18T02:58:16;-7.00;99.90
50606;DHT22;36557;53.572;10.170;2022-12-18T03:00:51;-7.00;99.90
50606;DHT22;36557;53.572;10.170;2022-12-18T03:03:29;-7.10;99.90
50606;DHT22;36557;53.572;10.170;2022-12-18T03:06:06;-7.20;99.90
50606;DHT22;36557;53.572;10.170;2022-12-18T03:08:37;-7.20;99.90
50606;DHT22;36557;53.572;10.170;2022-12-18T03:11:12;-7.20;99.90
50606;DHT22;36557;53.572;10.170;2022-12-18T03:13:52;-7.30;99.90
50606;DHT22;36557;53.572;10.170;2022-12-18T03:16:27;-7.30;99.90
50606;DHT22;36557;53.572;10.170;2022-12-18T03:19:07;-7.20;99.90
50606;DHT22;36557;53.572;10.170;2022-12-18T03:21:51;-7.30;99.90
50606;DHT22;36557;53.572;10.170;2022-12-18T03:24:20;-7.30;99.90
50606;DHT22;36557;53.572;10.170;2022-12-18T03:26:48;-7.20;99.90
50606;DHT22;36557;53.572;10.170;2022-12-18T03:29:22;-7.20;99.90
50606;DHT22;36557;53.572;10.170;2022-12-18T03:31:55;-7.20;99.90
50606;DHT22;36557;53.572;10.170;2022-12-18T03:34:29;-7.20;99.90
50606;DHT22;36557;53.572;10.170;2022-12-18T03:36:56;-7.20;99.90
50606;DHT22;36557;53.572;10.170;2022-12-18T03:39:23;-7.20;99.90
50606;DHT22;36557;53.572;10.170;2022-12-18T03:50:07;-7.20;99.90
50606;DHT22;36557;53.572;10.170;2022-12-18T03:52:46;-7.20;99.90
50606;DHT22;36557;53.572;10.170;2022-12-18T03:55:13;-7.20;99.90
50606;DHT22;36557;53.572;10.170;2022-12-18T03:57:41;-7.20;99.90
50606;DHT22;36557;53.572;10.170;2022-12-18T04:00:12;-7.20;99.90
50606;DHT22;36557;53.572;10.170;2022-12-18T04:02:42;-7.20;99.90
50606;DHT22;36557;53.572;10.170;2022-12-18T04:05:10;-7.20;99.90
50606;DHT22;36557;53.572;10.170;2022-12-18T04:07:36;-7.30;99.90
50606;DHT22;36557;53.572;10.170;2022-12-18T04:10:06;-7.30;99.90
50606;DHT22;36557;53.572;10.170;2022-12-18T04:12:32;-7.30;99.90
50606;DHT22;36557;53.572;10.170;2022-12-18T04:14:58;-7.30;99.90
50606;DHT22;36557;53.572;10.170;2022-12-18T04:17:23;-7.30;99.90
50606;DHT22;36557;53.572;10.170;2022-12-18T04:19:50;-7.30;99.90
50606;DHT22;36557;53.572;10.170;2022-12-18T04:22:16;-7.30;99.90
50606;DHT22;36557;53.572;10.170;2022-12-18T04:24:41;-7.30;99.90
50606;DHT22;36557;53.572;10.170;2022-12-18T04:27:07;-7.40;99.90
50606;DHT22;36557;53.572;10.170;2022-12-18T04:29:33;-7.30;99.90
50606;DHT22;36557;53.572;10.170;2022-12-18T04:31:58;-7.40;99.90
50606;DHT22;36557;53.572;10.170;2022-12-18T04:34:24;-7.40;99.90
50606;DHT22;36557;53.572;10.170;2022-12-18T04:36:50;-7.30;99.90
50606;DHT22;36557;53.572;10.170;2022-12-18T04:39:16;-7.40;99.90
50606;DHT22;36557;53.572;10.170;2022-12-18T04:41:42;-7.40;99.90
50606;DHT22;36557;53.572;10.170;2022-12-18T04:44:07;-7.50;99.90
50606;DHT22;36557;53.572;10.170;2022-12-18T04:46:33;-7.60;99.90
50606;DHT22;36557;53.572;10.170;2022-12-18T04:48:59;-7.60;99.90
50606;DHT22;36557;53.572;10.170;2022-12-18T04:51:24;-7.60;99.90
50606;DHT22;36557;53.572;10.170;2022-12-18T04:53:50;-7.70;99.90
50606;DHT22;36557;53.572;10.170;2022-12-18T04:56:16;-7.70;99.90
50606;DHT22;36557;53.572;10.170;2022-12-18T04:58:44;-7.70;99.90
50606;DHT22;36557;53.572;10.170;2022-12-18T05:01:11;-7.60;99.90
50606;DHT22;36557;53.572;10.170;2022-12-18T05:03:37;-7.70;99.90
50606;DHT22;36557;53.572;10.170;2022-12-18T05:06:04;-7.60;99.90
50606;DHT22;36557;53.572;10.170;2022-12-18T05:08:30;-7.60;99.90
50606;DHT22;36557;53.572;10.170;2022-12-18T05:11:06;-7.60;99.90
50606;DHT22;36557;53.572;10.170;2022-12-18T05:13:32;-7.60;99.90
50606;DHT22;36557;53.572;10.170;2022-12-18T05:15:58;-7.50;99.90
50606;DHT22;36557;53.572;10.170;2022-12-18T05:18:25;-7.50;99.90
50606;DHT22;36557;53.572;10.170;2022-12-18T05:20:52;-7.50;99.90
50606;DHT22;36557;53.572;10.170;2022-12-18T05:23:18;-7.40;99.90
50606;DHT22;36557;53.572;10.170;2022-12-18T05:25:54;-7.40;99.90
50606;DHT22;36557;53.572;10.170;2022-12-18T05:28:21;-7.50;99.90
50606;DHT22;36557;53.572;10.170;2022-12-18T05:30:48;-7.40;99.90
50606;DHT22;36557;53.572;10.170;2022-12-18T05:33:15;-7.50;99.90
50606;DHT22;36557;53.572;10.170;2022-12-18T05:35:41;-7.50;99.90
50606;DHT22;36557;53.572;10.170;2022-12-18T05:38:06;-7.50;99.90
50606;DHT22;36557;53.572;10.170;2022-12-18T05:40:32;-7.50;99.90
50606;DHT22;36557;53.572;10.170;2022-12-18T05:42:58;-7.50;99.90
50606;DHT22;36557;53.572;10.170;2022-12-18T05:45:23;-7.50;99.90
50606;DHT22;36557;53.572;10.170;2022-12-18T05:47:49;-7.40;99.90
50606;DHT22;36557;53.572;10.170;2022-12-18T05:50:15;-7.40;99.90
50606;DHT22;36557;53.572;10.170;2022-12-18T05:52:40;-7.40;99.90
50606;DHT22;36557;53.572;10.170;2022-12-18T05:55:06;-7.50;99.90
50606;DHT22;36557;53.572;10.170;2022-12-18T05:57:32;-7.50;99.90
50606;DHT22;36557;53.572;10.170;2022-12-18T05:59:58;-7.60;99.90
50606;DHT22;36557;53.572;10.170;2022-12-18T06:02:24;-7.60;99.90
50606;DHT22;36557;53.572;10.170;2022-12-18T06:04:49;-7.60;99.90
50606;DHT22;36557;53.572;10.170;2022-12-18T06:07:15;-7.70;99.90
50606;DHT22;36557;53.572;10.170;2022-12-18T06:09:41;-7.70;99.90
50606;DHT22;36557;53.572;10.170;2022-12-18T06:12:06;-7.80;99.90
50606;DHT22;36557;53.572;10.170;2022-12-18T06:14:32;-7.80;99.90
50606;DHT22;36557;53.572;10.170;2022-12-18T06:16:58;-7.80;99.90
50606;DHT22;36557;53.572;10.170;2022-12-18T06:19:23;-7.80;99.90
50606;DHT22;36557;53.572;10.170;2022-12-18T06:21:49;-7.80;99.90
50606;DHT22;36557;53.572;10.170;2022-12-18T06:24:15;-7.80;99.90
50606;DHT22;36557;53.572;10.170;2022-12-18T06:26:41;-7.80;99.90
50606;DHT22;36557;53.572;10.170;2022-12-18T06:29:07;-7.80;99.90
50606;DHT22;36557;53.572;10.170;2022-12-18T06:31:32;-7.80;99.90
50606;DHT22;36557;53.572;10.170;2022-12-18T06:33:58;-7.90;99.90
50606;DHT22;36557;53.572;10.170;2022-12-18T06:36:24;-7.80;99.90
50606;DHT22;36557;53.572;10.170;2022-12-18T06:38:50;-7.80;99.90
50606;DHT22;36557;53.572;10.170;2022-12-18T06:41:18;-7.70;99.90
50606;DHT22;36557;53.572;10.170;2022-12-18T06:43:44;-7.70;99.90
50606;DHT22;36557;53.572;10.170;2022-12-18T06:46:11;-7.80;99.90
50606;DHT22;36557;53.572;10.170;2022-12-18T06:48:37;-7.80;99.90
50606;DHT22;36557;53.572;10.170;2022-12-18T06:51:03;-7.70;99.90
50606;DHT22;36557;53.572;10.170;2022-12-18T06:53:29;-7.70;99.90
50606;DHT22;36557;53.572;10.170;2022-12-18T06:56:06;-7.60;99.90
50606;DHT22;36557;53.572;10.170;2022-12-18T06:58:33;-7.50;99.90
50606;DHT22;36557;53.572;10.170;2022-12-18T07:01:06;-7.50;99.90
50606;DHT22;36557;53.572;10.170;2022-12-18T07:03:32;-7.50;99.90
50606;DHT22;36557;53.572;10.170;2022-12-18T07:05:58;-7.50;99.90
50606;DHT22;36557;53.572;10.170;2022-12-18T07:08:24;-7.50;99.90
50606;DHT22;36557;53.572;10.170;2022-12-18T07:10:50;-7.50;99.90
50606;DHT22;36557;53.572;10.170;2022-12-18T07:13:16;-7.40;99.90
50606;DHT22;36557;53.572;10.170;2022-12-18T07:15:43;-7.40;99.90
50606;DHT22;36557;53.572;10.170;2022-12-18T07:18:09;-7.30;99.90
50606;DHT22;36557;53.572;10.170;2022-12-18T07:20:36;-7.40;99.90
50606;DHT22;36557;53.572;10.170;2022-12-18T07:23:03;-7.30;99.90
50606;DHT22;36557;53.572;10.170;2022-12-18T07:25:29;-7.30;99.90
50606;DHT22;36557;53.572;10.170;2022-12-18T07:27:54;-7.30;99.90
50606;DHT22;36557;53.572;10.170;2022-12-18T07:30:20;-7.40;99.90
50606;DHT22;36557;53.572;10.170;2022-12-18T07:32:46;-7.40;99.90
50606;DHT22;36557;53.572;10.170;2022-12-18T07:35:12;-7.40;99.90
50606;DHT22;36557;53.572;10.170;2022-12-18T07:37:37;-7.30;99.90
50606;DHT22;36557;53.572;10.170;2022-12-18T07:40:03;-7.30;99.90
50606;DHT22;36557;53.572;10.170;2022-12-18T07:42:29;-7.20;99.90
50606;DHT22;36557;53.572;10.170;2022-12-18T07:44:59;-7.30;99.90
50606;DHT22;36557;53.572;10.170;2022-12-18T07:47:25;-7.20;99.90
50606;DHT22;36557;53.572;10.170;2022-12-18T07:49:51;-7.30;99.90
50606;DHT22;36557;53.572;10.170;2022-12-18T07:52:17;-7.20;99.90
50606;DHT22;36557;53.572;10.170;2022-12-18T07:54:43;-7.20;99.90
50606;DHT22;36557;53.572;10.170;2022-12-18T07:57:09;-7.30;99.90
50606;DHT22;36557;53.572;10.170;2022-12-18T07:59:34;-7.30;99.90
50606;DHT22;36557;53.572;10.170;2022-12-18T08:02:00;-7.20;99.90
50606;DHT22;36557;53.572;10.170;2022-12-18T08:04:26;-7.20;99.90
50606;DHT22;36557;53.572;10.170;2022-12-18T08:06:52;-7.20;99.90
50606;DHT22;36557;53.572;10.170;2022-12-18T08:09:18;-7.20;99.90
50606;DHT22;36557;53.572;10.170;2022-12-18T08:11:44;-7.20;99.90
50606;DHT22;36557;53.572;10.170;2022-12-18T08:14:10;-7.00;99.90
50606;DHT22;36557;53.572;10.170;2022-12-18T08:16:36;-7.00;99.90
50606;DHT22;36557;53.572;10.170;2022-12-18T08:19:02;-7.00;99.90
50606;DHT22;36557;53.572;10.170;2022-12-18T08:21:29;-6.90;99.90
50606;DHT22;36557;53.572;10.170;2022-12-18T08:23:57;-6.90;99.90
50606;DHT22;36557;53.572;10.170;2022-12-18T08:26:25;-6.80;99.90
50606;DHT22;36557;53.572;10.170;2022-12-18T08:28:53;-6.80;99.90
50606;DHT22;36557;53.572;10.170;2022-12-18T08:31:19;-6.70;99.90
50606;DHT22;36557;53.572;10.170;2022-12-18T08:33:45;-6.70;99.90
50606;DHT22;36557;53.572;10.170;2022-12-18T08:36:11;-6.60;99.90
50606;DHT22;36557;53.572;10.170;2022-12-18T08:38:36;-6.50;99.90
50606;DHT22;36557;53.572;10.170;2022-12-18T08:41:07;-6.50;99.90
50606;DHT22;36557;53.572;10.170;2022-12-18T08:43:34;-6.50;99.90
50606;DHT22;36557;53.572;10.170;2022-12-18T08:46:19;-6.50;99.90
50606;DHT22;36557;53.572;10.170;2022-12-18T08:48:45;-6.40;99.90
50606;DHT22;36557;53.572;10.170;2022-12-18T08:51:11;-6.40;99.90
50606;DHT22;36557;53.572;10.170;2022-12-18T08:53:38;-6.40;99.90
50606;DHT22;36557;53.572;10.170;2022-12-18T08:56:04;-6.30;99.90
50606;DHT22;36557;53.572;10.170;2022-12-18T08:58:30;-6.30;99.90
50606;DHT22;36557;53.572;10.170;2022-12-18T09:01:07;-6.20;99.90
50606;DHT22;36557;53.572;10.170;2022-12-18T09:03:34;-6.20;99.90
50606;DHT22;36557;53.572;10.170;2022-12-18T09:06:00;-6.10;99.90
50606;DHT22;36557;53.572;10.170;2022-12-18T09:08:26;-6.00;99.90
50606;DHT22;36557;53.572;10.170;2022-12-18T09:10:53;-6.00;99.90
50606;DHT22;36557;53.572;10.170;2022-12-18T09:13:19;-6.00;99.90
50606;DHT22;36557;53.572;10.170;2022-12-18T09:15:49;-5.90;99.90
50606;DHT22;36557;53.572;10.170;2022-12-18T09:18:16;-5.80;99.90
50606;DHT22;36557;53.572;10.170;2022-12-18T09:20:43;-5.80;99.90
50606;DHT22;36557;53.572;10.170;2022-12-18T09:23:09;-5.70;99.90
50606;DHT22;36557;53.572;10.170;2022-12-18T09:25:35;-5.60;99.90
50606;DHT22;36557;53.572;10.170;2022-12-18T09:28:09;-5.50;99.90
50606;DHT22;36557;53.572;10.170;2022-12-18T09:30:38;-5.50;99.90
50606;DHT22;36557;53.572;10.170;2022-12-18T09:33:03;-5.40;99.90
50606;DHT22;36557;53.572;10.170;2022-12-18T09:35:29;-5.40;99.90
50606;DHT22;36557;53.572;10.170;2022-12-18T09:37:55;-5.30;99.90
50606;DHT22;36557;53.572;10.170;2022-12-18T09:40:23;-5.30;99.90
50606;DHT22;36557;53.572;10.170;2022-12-18T09:42:57;-5.20;99.90
50606;DHT22;36557;53.572;10.170;2022-12-18T09:45:24;-5.10;99.90
50606;DHT22;36557;53.572;10.170;2022-12-18T09:47:52;-5.10;99.90
50606;DHT22;36557;53.572;10.170;2022-12-18T09:50:33;-5.00;99.90
50606;DHT22;36557;53.572;10.170;2022-12-18T09:53:05;-4.90;99.90
50606;DHT22;36557;53.572;10.170;2022-12-18T09:55:35;-4.90;99.90
50606;DHT22;36557;53.572;10.170;2022-12-18T10:00:54;-4.80;99.90
50606;DHT22;36557;53.572;10.170;2022-12-18T10:03:21;-4.70;99.90
50606;DHT22;36557;53.572;10.170;2022-12-18T10:06:05;-4.70;99.90
50606;DHT22;36557;53.572;10.170;2022-12-18T10:08:51;-4.50;99.90
50606;DHT22;36557;53.572;10.170;2022-12-18T10:11:37;-4.50;99.90
50606;DHT22;36557;53.572;10.170;2022-12-18T10:17:15;-4.50;99.90
50606;DHT22;36557;53.572;10.170;2022-12-18T10:19:59;-4.40;99.90
50606;DHT22;36557;53.572;10.170;2022-12-18T10:28:10;-4.30;99.90
50606;DHT22;36557;53.572;10.170;2022-12-18T10:30:39;-4.20;99.90
50606;DHT22;36557;53.572;10.170;2022-12-18T10:33:05;-4.20;99.90
50606;DHT22;36557;53.572;10.170;2022-12-18T10:35:31;-4.20;99.90
50606;DHT22;36557;53.572;10.170;2022-12-18T10:38:07;-4.20;99.90
50606;DHT22;36557;53.572;10.170;2022-12-18T10:43:16;-4.20;99.90
50606;DHT22;36557;53.572;10.170;2022-12-18T10:48:27;-4.20;99.90
50606;DHT22;36557;53.572;10.170;2022-12-18T10:50:53;-4.10;99.90
50606;DHT22;36557;53.572;10.170;2022-12-18T10:53:24;-4.10;99.90
50606;DHT22;36557;53.572;10.170;2022-12-18T10:55:53;-4.00;99.90
50606;DHT22;36557;53.572;10.170;2022-12-18T11:01:08;-3.90;99.90
50606;DHT22;36557;53.572;10.170;2022-12-18T11:03:43;-3.70;99.90
50606;DHT22;36557;53.572;10.170;2022-12-18T11:06:14;-3.70;99.90
50606;DHT22;36557;53.572;10.170;2022-12-18T11:08:42;-3.60;99.90
50606;DHT22;36557;53.572;10.170;2022-12-18T11:11:19;-3.50;99.90
50606;DHT22;36557;53.572;10.170;2022-12-18T11:14:05;-3.50;99.90
50606;DHT22;36557;53.572;10.170;2022-12-18T11:16:43;-3.50;99.90
50606;DHT22;36557;53.572;10.170;2022-12-18T11:21:56;-3.30;99.90
50606;DHT22;36557;53.572;10.170;2022-12-18T11:24:34;-3.30;99.90
50606;DHT22;36557;53.572;10.170;2022-12-18T11:27:16;-3.20;99.90
50606;DHT22;36557;53.572;10.170;2022-12-18T11:29:43;-3.20;99.90
50606;DHT22;36557;53.572;10.170;2022-12-18T11:34:53;-3.10;99.90
50606;DHT22;36557;53.572;10.170;2022-12-18T11:37:23;-3.20;99.90
50606;DHT22;36557;53.572;10.170;2022-12-18T11:40:17;-3.10;99.90
50606;DHT22;36557;53.572;10.170;2022-12-18T11:45:34;-3.10;99.90
50606;DHT22;36557;53.572;10.170;2022-12-18T11:50:56;-3.10;99.90
50606;DHT22;36557;53.572;10.170;2022-12-18T11:53:25;-3.00;99.90
50606;DHT22;36557;53.572;10.170;2022-12-18T12:14:59;-2.90;99.90
50606;DHT22;36557;53.572;10.170;2022-12-18T12:17:45;-2.90;99.90
50606;DHT22;36557;53.572;10.170;2022-12-18T12:25:41;-2.90;99.90
50606;DHT22;36557;53.572;10.170;2022-12-18T12:31:33;-2.90;99.90
50606;DHT22;36557;53.572;10.170;2022-12-18T12:34:26;-2.80;99.90
50606;DHT22;36557;53.572;10.170;2022-12-18T12:37:14;-2.80;99.90
50606;DHT22;36557;53.572;10.170;2022-12-18T12:39:44;-2.90;99.90
50606;DHT22;36557;53.572;10.170;2022-12-18T12:42:31;-2.90;99.90
50606;DHT22;36557;53.572;10.170;2022-12-18T12:45:28;-2.90;99.90
50606;DHT22;36557;53.572;10.170;2022-12-18T12:47:57;-2.90;99.90
50606;DHT22;36557;53.572;10.170;2022-12-18T12:50:25;-2.90;99.90
50606;DHT22;36557;53.572;10.170;2022-12-18T12:52:55;-2.80;99.90
50606;DHT22;36557;53.572;10.170;2022-12-18T12:55:25;-2.80;99.90
50606;DHT22;36557;53.572;10.170;2022-12-18T13:00:54;-2.70;99.90
50606;DHT22;36557;53.572;10.170;2022-12-18T13:03:45;-2.60;99.90
50606;DHT22;36557;53.572;10.170;2022-12-18T13:09:11;-2.60;99.90
50606;DHT22;36557;53.572;10.170;2022-12-18T13:11:42;-2.60;99.90
50606;DHT22;36557;53.572;10.170;2022-12-18T13:14:35;-2.60;99.90
50606;DHT22;36557;53.572;10.170;2022-12-18T13:20:08;-2.50;99.90
50606;DHT22;36557;53.572;10.170;2022-12-18T13:22:44;-2.50;99.90
50606;DHT22;36557;53.572;10.170;2022-12-18T13:25:33;-2.50;99.90
50606;DHT22;36557;53.572;10.170;2022-12-18T13:28:04;-2.50;99.90
50606;DHT22;36557;53.572;10.170;2022-12-18T13:35:50;-2.50;99.90
50606;DHT22;36557;53.572;10.170;2022-12-18T13:40:59;-2.70;99.90
50606;DHT22;36557;53.572;10.170;2022-12-18T13:43:46;-2.70;99.90
50606;DHT22;36557;53.572;10.170;2022-12-18T13:49:02;-2.90;99.90
50606;DHT22;36557;53.572;10.170;2022-12-18T13:51:30;-3.00;99.90
50606;DHT22;36557;53.572;10.170;2022-12-18T13:53:58;-3.00;99.90
50606;DHT22;36557;53.572;10.170;2022-12-18T13:56:26;-3.00;99.90
50606;DHT22;36557;53.572;10.170;2022-12-18T13:59:14;-3.10;99.90
50606;DHT22;36557;53.572;10.170;2022-12-18T14:01:50;-3.10;99.90
50606;DHT22;36557;53.572;10.170;2022-12-18T14:04:23;-3.10;99.90
50606;DHT22;36557;53.572;10.170;2022-12-18T14:06:52;-3.20;99.90
50606;DHT22;36557;53.572;10.170;2022-12-18T14:09:24;-3.20;99.90
50606;DHT22;36557;53.572;10.170;2022-12-18T14:11:51;-3.20;99.90
50606;DHT22;36557;53.572;10.170;2022-12-18T14:14:18;-3.30;99.90
50606;DHT22;36557;53.572;10.170;2022-12-18T14:16:46;-3.30;99.90
50606;DHT22;36557;53.572;10.170;2022-12-18T14:19:15;-3.30;99.90
50606;DHT22;36557;53.572;10.170;2022-12-18T14:21:49;-3.30;99.90
50606;DHT22;36557;53.572;10.170;2022-12-18T14:24:20;-3.30;99.90
50606;DHT22;36557;53.572;10.170;2022-12-18T14:26:48;-3.30;99.90
50606;DHT22;36557;53.572;10.170;2022-12-18T14:29:28;-3.40;99.90
50606;DHT22;36557;53.572;10.170;2022-12-18T14:32:11;-3.40;99.90
50606;DHT22;36557;53.572;10.170;2022-12-18T14:34:39;-3.40;99.90
50606;DHT22;36557;53.572;10.170;2022-12-18T14:37:05;-3.40;99.90
50606;DHT22;36557;53.572;10.170;2022-12-18T14:39:32;-3.50;99.90
50606;DHT22;36557;53.572;10.170;2022-12-18T14:41:58;-3.50;99.90
50606;DHT22;36557;53.572;10.170;2022-12-18T14:44:23;-3.60;99.90
50606;DHT22;36557;53.572;10.170;2022-12-18T14:46:50;-3.60;99.90
50606;DHT22;36557;53.572;10.170;2022-12-18T14:49:33;-3.70;99.90
50606;DHT22;36557;53.572;10.170;2022-12-18T14:52:05;-3.60;99.90
50606;DHT22;36557;53.572;10.170;2022-12-18T14:54:32;-3.70;99.90
50606;DHT22;36557;53.572;10.170;2022-12-18T14:57:06;-3.70;99.90
50606;DHT22;36557;53.572;10.170;2022-12-18T14:59:40;-3.70;99.90
50606;DHT22;36557;53.572;10.170;2022-12-18T15:02:21;-3.70;99.90
50606;DHT22;36557;53.572;10.170;2022-12-18T15:04:47;-3.70;99.90
50606;DHT22;36557;53.572;10.170;2022-12-18T15:07:21;-3.80;99.90
50606;DHT22;36557;53.572;10.170;2022-12-18T15:10:14;-3.90;99.90
50606;DHT22;36557;53.572;10.170;2022-12-18T15:12:45;-4.00;99.90
50606;DHT22;36557;53.572;10.170;2022-12-18T15:20:57;-4.20;99.90
50606;DHT22;36557;53.572;10.170;2022-12-18T15:26:13;-4.30;99.90
50606;DHT22;36557;53.572;10.170;2022-12-18T15:33:42;-4.40;99.90
50606;DHT22;36557;53.572;10.170;2022-12-18T15:36:14;-4.50;99.90
50606;DHT22;36557;53.572;10.170;2022-12-18T15:38:41;-4.50;99.90
50606;DHT22;36557;53.572;10.170;2022-12-18T15:41:14;-4.60;99.90
50606;DHT22;36557;53.572;10.170;2022-12-18T15:43:40;-4.50;99.90
50606;DHT22;36557;53.572;10.170;2022-12-18T15:46:13;-4.60;99.90
50606;DHT22;36557;53.572;10.170;2022-12-18T15:48:47;-4.50;99.90
50606;DHT22;36557;53.572;10.170;2022-12-18T15:51:32;-4.50;99.90
50606;DHT22;36557;53.572;10.170;2022-12-18T15:54:03;-4.50;99.90
50606;DHT22;36557;53.572;10.170;2022-12-18T15:56:30;-4.50;99.90
50606;DHT22;36557;53.572;10.170;2022-12-18T15:59:19;-4.50;99.90
50606;DHT22;36557;53.572;10.170;2022-12-18T16:01:50;-4.60;99.90
50606;DHT22;36557;53.572;10.170;2022-12-18T16:04:19;-4.60;99.90
50606;DHT22;36557;53.572;10.170;2022-12-18T16:06:46;-4.60;99.90
50606;DHT22;36557;53.572;10.170;2022-12-18T16:09:12;-4.60;99.90
50606;DHT22;36557;53.572;10.170;2022-12-18T16:11:39;-4.50;99.90
50606;DHT22;36557;53.572;10.170;2022-12-18T16:14:20;-4.60;99.90
50606;DHT22;36557;53.572;10.170;2022-12-18T16:16:48;-4.60;99.90
50606;DHT22;36557;53.572;10.170;2022-12-18T16:19:14;-4.50;99.90
50606;DHT22;36557;53.572;10.170;2022-12-18T16:21:40;-4.50;99.90
50606;DHT22;36557;53.572;10.170;2022-12-18T16:24:12;-4.50;99.90
50606;DHT22;36557;53.572;10.170;2022-12-18T16:26:38;-4.50;99.90
50606;DHT22;36557;53.572;10.170;2022-12-18T16:29:04;-4.50;99.90
50606;DHT22;36557;53.572;10.170;2022-12-18T16:31:29;-4.50;99.90
50606;DHT22;36557;53.572;10.170;2022-12-18T16:34:20;-4.50;99.90
50606;DHT22;36557;53.572;10.170;2022-12-18T16:36:52;-4.50;99.90
50606;DHT22;36557;53.572;10.170;2022-12-18T16:39:19;-4.40;99.90
50606;DHT22;36557;53.572;10.170;2022-12-18T16:41:45;-4.40;99.90
50606;DHT22;36557;53.572;10.170;2022-12-18T16:44:11;-4.40;99.90
50606;DHT22;36557;53.572;10.170;2022-12-18T16:46:38;-4.40;99.90
50606;DHT22;36557;53.572;10.170;2022-12-18T16:49:04;-4.40;99.90
50606;DHT22;36557;53.572;10.170;2022-12-18T16:51:30;-4.40;99.90
50606;DHT22;36557;53.572;10.170;2022-12-18T16:53:56;-4.40;99.90
50606;DHT22;36557;53.572;10.170;2022-12-18T16:56:22;-4.40;99.90
50606;DHT22;36557;53.572;10.170;2022-12-18T16:58:55;-4.40;99.90
50606;DHT22;36557;53.572;10.170;2022-12-18T17:01:22;-4.40;99.90
50606;DHT22;36557;53.572;10.170;2022-12-18T17:03:56;-4.30;99.90
50606;DHT22;36557;53.572;10.170;2022-12-18T17:06:23;-4.30;99.90
50606;DHT22;36557;53.572;10.170;2022-12-18T17:08:54;-4.30;99.90
50606;DHT22;36557;53.572;10.170;2022-12-18T17:11:22;-4.40;99.90
50606;DHT22;36557;53.572;10.170;2022-12-18T17:13:48;-4.40;99.90
50606;DHT22;36557;53.572;10.170;2022-12-18T17:16:13;-4.30;99.90
50606;DHT22;36557;53.572;10.170;2022-12-18T17:18:39;-4.30;99.90
50606;DHT22;36557;53.572;10.170;2022-12-18T17:21:05;-4.30;99.90
50606;DHT22;36557;53.572;10.170;2022-12-18T17:23:34;-4.30;99.90
50606;DHT22;36557;53.572;10.170;2022-12-18T17:26:00;-4.30;99.90
50606;DHT22;36557;53.572;10.170;2022-12-18T17:28:26;-4.20;99.90
50606;DHT22;36557;53.572;10.170;2022-12-18T17:30:53;-4.20;99.90